sensor_id;sensor_type;location;lat;lon;timestamp;P1;durP1;ratioP1;P2;durP2;ratioP2
73940;SDS011;62294;48.554;10.202;2023-11-22T00:01:54;11.43;;;3.90;;
73940;SDS011;62294;48.554;10.202;2023-11-22T00:04:21;11.38;;;4.97;;
73940;SDS011;62294;48.554;10.202;2023-11-22T00:06:47;7.60;;;4.07;;
73940;SDS011;62294;48.554;10.202;2023-11-22T00:09:14;8.27;;;4.30;;
73940;SDS011;62294;48.554;10.202;2023-11-22T00:11:41;7.82;;;4.00;;
73940;SDS011;62294;48.554;10.202;2023-11-22T00:14:07;8.75;;;4.45;;
73940;SDS011;62294;48.554;10.202;2023-11-22T00:16:34;8.77;;;4.40;;
73940;SDS011;62294;48.554;10.202;2023-11-22T00:19:03;10.57;;;5.05;;
73940;SDS011;62294;48.554;10.202;2023-11-22T00:21:31;9.73;;;4.47;;
73940;SDS011;62294;48.554;10.202;2023-11-22T00:23:57;8.45;;;4.72;;
73940;SDS011;62294;48.554;10.202;2023-11-22T00:26:24;12.02;;;5.10;;
73940;SDS011;62294;48.554;10.202;2023-11-22T00:28:51;9.63;;;4.85;;
73940;SDS011;62294;48.554;10.202;2023-11-22T00:31:19;8.95;;;4.50;;
73940;SDS011;62294;48.554;10.202;2023-11-22T00:33:46;8.00;;;4.35;;
73940;SDS011;62294;48.554;10.202;2023-11-22T00:36:13;9.70;;;4.95;;
73940;SDS011;62294;48.554;10.202;2023-11-22T00:38:39;12.13;;;5.47;;
73940;SDS011;62294;48.554;10.202;2023-11-22T00:41:06;11.48;;;5.40;;
73940;SDS011;62294;48.554;10.202;2023-11-22T00:43:34;13.27;;;5.75;;
73940;SDS011;62294;48.554;10.202;2023-11-22T00:46:00;8.85;;;5.22;;
73940;SDS011;62294;48.554;10.202;2023-11-22T00:48:28;11.70;;;5.10;;
73940;SDS011;62294;48.554;10.202;2023-11-22T00:50:54;6.55;;;3.63;;
73940;SDS011;62294;48.554;10.202;2023-11-22T00:53:21;3.40;;;2.28;;
73940;SDS011;62294;48.554;10.202;2023-11-22T00:55:47;3.45;;;1.73;;
73940;SDS011;62294;48.554;10.202;2023-11-22T00:58:14;5.18;;;2.85;;
73940;SDS011;62294;48.554;10.202;2023-11-22T01:00:41;3.53;;;2.05;;
73940;SDS011;62294;48.554;10.202;2023-11-22T01:03:07;3.67;;;1.85;;
73940;SDS011;62294;48.554;10.202;2023-11-22T01:05:39;3.72;;;2.00;;
73940;SDS011;62294;48.554;10.202;2023-11-22T01:08:05;2.15;;;1.48;;
73940;SDS011;62294;48.554;10.202;2023-11-22T01:10:32;3.42;;;2.05;;
73940;SDS011;62294;48.554;10.202;2023-11-22T01:12:58;5.00;;;1.92;;
73940;SDS011;62294;48.554;10.202;2023-11-22T01:15:25;3.35;;;1.95;;
73940;SDS011;62294;48.554;10.202;2023-11-22T01:17:52;2.10;;;1.48;;
73940;SDS011;62294;48.554;10.202;2023-11-22T01:20:18;4.07;;;2.08;;
73940;SDS011;62294;48.554;10.202;2023-11-22T01:22:45;2.10;;;1.60;;
73940;SDS011;62294;48.554;10.202;2023-11-22T01:25:11;2.33;;;1.92;;
73940;SDS011;62294;48.554;10.202;2023-11-22T01:27:38;1.85;;;1.58;;
73940;SDS011;62294;48.554;10.202;2023-11-22T01:30:05;2.45;;;1.55;;
73940;SDS011;62294;48.554;10.202;2023-11-22T01:32:33;2.72;;;1.67;;
73940;SDS011;62294;48.554;10.202;2023-11-22T01:35:03;2.95;;;1.50;;
73940;SDS011;62294;48.554;10.202;2023-11-22T01:37:32;2.83;;;1.60;;
73940;SDS011;62294;48.554;10.202;2023-11-22T01:39:59;2.22;;;1.70;;
73940;SDS011;62294;48.554;10.202;2023-11-22T01:42:25;2.38;;;1.20;;
73940;SDS011;62294;48.554;10.202;2023-11-22T01:44:52;2.15;;;1.63;;
73940;SDS011;62294;48.554;10.202;2023-11-22T01:47:21;2.92;;;1.63;;
73940;SDS011;62294;48.554;10.202;2023-11-22T01:49:48;2.78;;;1.80;;
73940;SDS011;62294;48.554;10.202;2023-11-22T01:52:15;3.03;;;1.58;;
73940;SDS011;62294;48.554;10.202;2023-11-22T01:54:42;4.32;;;1.80;;
73940;SDS011;62294;48.554;10.202;2023-11-22T01:57:10;2.38;;;1.60;;
73940;SDS011;62294;48.554;10.202;2023-11-22T01:59:37;3.47;;;1.73;;
73940;SDS011;62294;48.554;10.202;2023-11-22T02:02:04;3.35;;;1.60;;
73940;SDS011;62294;48.554;10.202;2023-11-22T02:04:31;3.40;;;1.60;;
73940;SDS011;62294;48.554;10.202;2023-11-22T02:06:57;2.22;;;1.40;;
73940;SDS011;62294;48.554;10.202;2023-11-22T02:09:24;1.90;;;1.35;;
73940;SDS011;62294;48.554;10.202;2023-11-22T02:11:51;1.75;;;1.08;;
73940;SDS011;62294;48.554;10.202;2023-11-22T02:14:18;1.30;;;1.00;;
73940;SDS011;62294;48.554;10.202;2023-11-22T02:16:45;2.00;;;1.00;;
73940;SDS011;62294;48.554;10.202;2023-11-22T02:19:15;2.53;;;1.52;;
73940;SDS011;62294;48.554;10.202;2023-11-22T02:21:45;1.95;;;1.30;;
73940;SDS011;62294;48.554;10.202;2023-11-22T02:24:13;3.55;;;1.80;;
73940;SDS011;62294;48.554;10.202;2023-11-22T02:26:46;4.18;;;1.33;;
73940;SDS011;62294;48.554;10.202;2023-11-22T02:29:13;2.38;;;1.48;;
73940;SDS011;62294;48.554;10.202;2023-11-22T02:31:41;3.60;;;1.85;;
73940;SDS011;62294;48.554;10.202;2023-11-22T02:34:09;2.78;;;1.98;;
73940;SDS011;62294;48.554;10.202;2023-11-22T02:36:36;2.72;;;1.77;;
73940;SDS011;62294;48.554;10.202;2023-11-22T02:39:03;3.65;;;2.13;;
73940;SDS011;62294;48.554;10.202;2023-11-22T02:41:30;2.38;;;1.02;;
73940;SDS011;62294;48.554;10.202;2023-11-22T02:43:56;3.38;;;1.90;;
73940;SDS011;62294;48.554;10.202;2023-11-22T02:46:23;4.28;;;2.03;;
73940;SDS011;62294;48.554;10.202;2023-11-22T02:48:50;2.35;;;1.63;;
73940;SDS011;62294;48.554;10.202;2023-11-22T02:51:16;4.40;;;2.00;;
73940;SDS011;62294;48.554;10.202;2023-11-22T02:53:43;2.33;;;1.85;;
73940;SDS011;62294;48.554;10.202;2023-11-22T02:56:11;2.10;;;1.77;;
73940;SDS011;62294;48.554;10.202;2023-11-22T02:58:38;6.35;;;2.00;;
73940;SDS011;62294;48.554;10.202;2023-11-22T03:01:05;2.97;;;1.20;;
73940;SDS011;62294;48.554;10.202;2023-11-22T03:03:31;4.63;;;2.28;;
73940;SDS011;62294;48.554;10.202;2023-11-22T03:05:58;3.63;;;2.10;;
73940;SDS011;62294;48.554;10.202;2023-11-22T03:08:25;3.00;;;1.88;;
73940;SDS011;62294;48.554;10.202;2023-11-22T03:10:52;5.07;;;2.60;;
73940;SDS011;62294;48.554;10.202;2023-11-22T03:13:18;1.42;;;1.30;;
73940;SDS011;62294;48.554;10.202;2023-11-22T03:15:45;4.75;;;1.92;;
73940;SDS011;62294;48.554;10.202;2023-11-22T03:18:12;3.60;;;1.70;;
73940;SDS011;62294;48.554;10.202;2023-11-22T03:20:39;4.25;;;2.17;;
73940;SDS011;62294;48.554;10.202;2023-11-22T03:23:06;4.75;;;2.47;;
73940;SDS011;62294;48.554;10.202;2023-11-22T03:25:32;3.72;;;1.77;;
73940;SDS011;62294;48.554;10.202;2023-11-22T03:27:59;3.97;;;1.98;;
73940;SDS011;62294;48.554;10.202;2023-11-22T03:30:25;3.83;;;2.55;;
73940;SDS011;62294;48.554;10.202;2023-11-22T03:32:52;2.10;;;1.42;;
73940;SDS011;62294;48.554;10.202;2023-11-22T03:35:20;6.03;;;2.38;;
73940;SDS011;62294;48.554;10.202;2023-11-22T03:37:47;1.67;;;1.38;;
73940;SDS011;62294;48.554;10.202;2023-11-22T03:40:14;5.78;;;2.97;;
73940;SDS011;62294;48.554;10.202;2023-11-22T03:42:40;4.57;;;2.60;;
73940;SDS011;62294;48.554;10.202;2023-11-22T03:45:07;5.05;;;2.75;;
73940;SDS011;62294;48.554;10.202;2023-11-22T03:47:34;6.30;;;2.65;;
73940;SDS011;62294;48.554;10.202;2023-11-22T03:50:05;5.85;;;2.58;;
73940;SDS011;62294;48.554;10.202;2023-11-22T03:52:32;4.38;;;2.53;;
73940;SDS011;62294;48.554;10.202;2023-11-22T03:54:58;1.65;;;1.10;;
73940;SDS011;62294;48.554;10.202;2023-11-22T03:57:25;5.75;;;3.75;;
73940;SDS011;62294;48.554;10.202;2023-11-22T03:59:52;5.53;;;2.45;;
73940;SDS011;62294;48.554;10.202;2023-11-22T04:02:19;3.30;;;1.90;;
73940;SDS011;62294;48.554;10.202;2023-11-22T04:04:45;7.93;;;3.17;;
73940;SDS011;62294;48.554;10.202;2023-11-22T04:07:12;6.43;;;3.30;;
73940;SDS011;62294;48.554;10.202;2023-11-22T04:09:38;6.47;;;3.35;;
73940;SDS011;62294;48.554;10.202;2023-11-22T04:12:05;4.38;;;2.58;;
73940;SDS011;62294;48.554;10.202;2023-11-22T04:14:32;7.70;;;3.50;;
73940;SDS011;62294;48.554;10.202;2023-11-22T04:16:58;6.05;;;3.15;;
73940;SDS011;62294;48.554;10.202;2023-11-22T04:19:26;8.27;;;4.20;;
73940;SDS011;62294;48.554;10.202;2023-11-22T04:21:53;5.15;;;2.72;;
73940;SDS011;62294;48.554;10.202;2023-11-22T04:24:21;7.97;;;4.57;;
73940;SDS011;62294;48.554;10.202;2023-11-22T04:26:47;6.13;;;3.10;;
73940;SDS011;62294;48.554;10.202;2023-11-22T04:29:14;6.20;;;3.85;;
73940;SDS011;62294;48.554;10.202;2023-11-22T04:31:43;7.57;;;3.72;;
73940;SDS011;62294;48.554;10.202;2023-11-22T04:34:09;7.60;;;3.28;;
73940;SDS011;62294;48.554;10.202;2023-11-22T04:36:36;9.57;;;5.18;;
73940;SDS011;62294;48.554;10.202;2023-11-22T04:39:04;9.82;;;4.20;;
73940;SDS011;62294;48.554;10.202;2023-11-22T04:41:33;9.25;;;5.43;;
73940;SDS011;62294;48.554;10.202;2023-11-22T04:44:01;8.40;;;3.65;;
73940;SDS011;62294;48.554;10.202;2023-11-22T04:46:28;7.90;;;4.28;;
73940;SDS011;62294;48.554;10.202;2023-11-22T04:48:54;7.20;;;4.28;;
73940;SDS011;62294;48.554;10.202;2023-11-22T04:51:21;7.30;;;3.92;;
73940;SDS011;62294;48.554;10.202;2023-11-22T04:53:48;6.72;;;2.67;;
73940;SDS011;62294;48.554;10.202;2023-11-22T04:56:14;12.38;;;4.95;;
73940;SDS011;62294;48.554;10.202;2023-11-22T04:58:41;7.45;;;3.97;;
73940;SDS011;62294;48.554;10.202;2023-11-22T05:01:08;4.13;;;2.53;;
73940;SDS011;62294;48.554;10.202;2023-11-22T05:03:35;6.43;;;3.47;;
73940;SDS011;62294;48.554;10.202;2023-11-22T05:06:03;7.30;;;3.58;;
73940;SDS011;62294;48.554;10.202;2023-11-22T05:08:30;8.00;;;3.72;;
73940;SDS011;62294;48.554;10.202;2023-11-22T05:10:57;7.82;;;4.30;;
73940;SDS011;62294;48.554;10.202;2023-11-22T05:13:24;7.43;;;3.80;;
73940;SDS011;62294;48.554;10.202;2023-11-22T05:15:51;8.27;;;4.22;;
73940;SDS011;62294;48.554;10.202;2023-11-22T05:18:17;5.30;;;3.13;;
73940;SDS011;62294;48.554;10.202;2023-11-22T05:20:44;9.57;;;4.88;;
73940;SDS011;62294;48.554;10.202;2023-11-22T05:23:11;6.50;;;3.70;;
73940;SDS011;62294;48.554;10.202;2023-11-22T05:25:39;5.18;;;2.28;;
73940;SDS011;62294;48.554;10.202;2023-11-22T05:28:06;7.38;;;3.67;;
73940;SDS011;62294;48.554;10.202;2023-11-22T05:30:33;8.45;;;3.83;;
73940;SDS011;62294;48.554;10.202;2023-11-22T05:33:00;7.72;;;3.92;;
73940;SDS011;62294;48.554;10.202;2023-11-22T05:35:26;8.65;;;4.03;;
73940;SDS011;62294;48.554;10.202;2023-11-22T05:37:53;6.65;;;3.50;;
73940;SDS011;62294;48.554;10.202;2023-11-22T05:40:20;8.23;;;4.63;;
73940;SDS011;62294;48.554;10.202;2023-11-22T05:42:47;7.93;;;3.45;;
73940;SDS011;62294;48.554;10.202;2023-11-22T05:45:14;7.40;;;3.97;;
73940;SDS011;62294;48.554;10.202;2023-11-22T05:47:40;4.80;;;3.28;;
73940;SDS011;62294;48.554;10.202;2023-11-22T05:50:09;7.38;;;3.55;;
73940;SDS011;62294;48.554;10.202;2023-11-22T05:52:36;8.82;;;3.78;;
73940;SDS011;62294;48.554;10.202;2023-11-22T05:55:02;8.75;;;4.07;;
73940;SDS011;62294;48.554;10.202;2023-11-22T05:57:30;7.57;;;3.65;;
73940;SDS011;62294;48.554;10.202;2023-11-22T05:59:57;6.53;;;3.92;;
73940;SDS011;62294;48.554;10.202;2023-11-22T06:02:23;4.95;;;2.80;;
73940;SDS011;62294;48.554;10.202;2023-11-22T06:04:50;6.15;;;2.90;;
73940;SDS011;62294;48.554;10.202;2023-11-22T06:07:17;5.93;;;3.55;;
73940;SDS011;62294;48.554;10.202;2023-11-22T06:09:43;5.25;;;3.03;;
73940;SDS011;62294;48.554;10.202;2023-11-22T06:12:10;5.05;;;2.45;;
73940;SDS011;62294;48.554;10.202;2023-11-22T06:14:37;6.00;;;2.50;;
73940;SDS011;62294;48.554;10.202;2023-11-22T06:17:04;5.35;;;3.30;;
73940;SDS011;62294;48.554;10.202;2023-11-22T06:19:31;6.75;;;3.30;;
73940;SDS011;62294;48.554;10.202;2023-11-22T06:21:57;4.38;;;2.22;;
73940;SDS011;62294;48.554;10.202;2023-11-22T06:24:24;4.95;;;2.53;;
73940;SDS011;62294;48.554;10.202;2023-11-22T06:26:52;3.33;;;2.28;;
73940;SDS011;62294;48.554;10.202;2023-11-22T06:29:18;5.80;;;2.60;;
73940;SDS011;62294;48.554;10.202;2023-11-22T06:31:46;5.65;;;2.83;;
73940;SDS011;62294;48.554;10.202;2023-11-22T06:34:12;6.13;;;2.67;;
73940;SDS011;62294;48.554;10.202;2023-11-22T06:36:39;5.15;;;2.60;;
73940;SDS011;62294;48.554;10.202;2023-11-22T06:39:06;4.15;;;2.90;;
73940;SDS011;62294;48.554;10.202;2023-11-22T06:41:33;4.32;;;2.50;;
73940;SDS011;62294;48.554;10.202;2023-11-22T06:44:00;4.55;;;2.53;;
73940;SDS011;62294;48.554;10.202;2023-11-22T06:46:27;4.00;;;2.55;;
73940;SDS011;62294;48.554;10.202;2023-11-22T06:48:54;4.07;;;2.35;;
73940;SDS011;62294;48.554;10.202;2023-11-22T06:51:22;4.68;;;2.97;;
73940;SDS011;62294;48.554;10.202;2023-11-22T06:53:49;5.97;;;3.03;;
73940;SDS011;62294;48.554;10.202;2023-11-22T06:56:15;5.13;;;2.90;;
73940;SDS011;62294;48.554;10.202;2023-11-22T06:58:44;4.75;;;2.58;;
73940;SDS011;62294;48.554;10.202;2023-11-22T07:01:10;4.00;;;2.03;;
73940;SDS011;62294;48.554;10.202;2023-11-22T07:03:40;5.38;;;3.28;;
73940;SDS011;62294;48.554;10.202;2023-11-22T07:06:07;4.03;;;2.20;;
73940;SDS011;62294;48.554;10.202;2023-11-22T07:08:34;5.15;;;2.97;;
73940;SDS011;62294;48.554;10.202;2023-11-22T07:11:01;9.13;;;3.15;;
73940;SDS011;62294;48.554;10.202;2023-11-22T07:13:29;5.60;;;2.85;;
73940;SDS011;62294;48.554;10.202;2023-11-22T07:15:56;5.05;;;2.55;;
73940;SDS011;62294;48.554;10.202;2023-11-22T07:18:22;5.75;;;2.90;;
73940;SDS011;62294;48.554;10.202;2023-11-22T07:20:50;4.13;;;2.28;;
73940;SDS011;62294;48.554;10.202;2023-11-22T07:23:17;8.20;;;3.50;;
73940;SDS011;62294;48.554;10.202;2023-11-22T07:25:46;4.22;;;2.00;;
73940;SDS011;62294;48.554;10.202;2023-11-22T07:28:13;5.07;;;2.33;;
73940;SDS011;62294;48.554;10.202;2023-11-22T07:30:39;3.55;;;1.92;;
73940;SDS011;62294;48.554;10.202;2023-11-22T07:33:08;5.18;;;2.50;;
73940;SDS011;62294;48.554;10.202;2023-11-22T07:35:35;5.18;;;2.78;;
73940;SDS011;62294;48.554;10.202;2023-11-22T07:38:01;5.95;;;2.67;;
73940;SDS011;62294;48.554;10.202;2023-11-22T07:40:29;7.35;;;3.22;;
73940;SDS011;62294;48.554;10.202;2023-11-22T07:42:56;5.32;;;2.80;;
73940;SDS011;62294;48.554;10.202;2023-11-22T07:45:22;6.38;;;3.03;;
73940;SDS011;62294;48.554;10.202;2023-11-22T07:47:49;5.68;;;2.47;;
73940;SDS011;62294;48.554;10.202;2023-11-22T07:50:16;5.00;;;2.85;;
73940;SDS011;62294;48.554;10.202;2023-11-22T07:52:43;3.97;;;1.80;;
73940;SDS011;62294;48.554;10.202;2023-11-22T07:55:10;7.10;;;3.22;;
73940;SDS011;62294;48.554;10.202;2023-11-22T07:57:37;4.18;;;2.67;;
73940;SDS011;62294;48.554;10.202;2023-11-22T08:00:05;6.10;;;2.75;;
73940;SDS011;62294;48.554;10.202;2023-11-22T08:02:34;4.57;;;2.58;;
73940;SDS011;62294;48.554;10.202;2023-11-22T08:05:03;4.40;;;2.72;;
73940;SDS011;62294;48.554;10.202;2023-11-22T08:07:35;6.80;;;3.38;;
73940;SDS011;62294;48.554;10.202;2023-11-22T08:10:05;5.95;;;2.90;;
73940;SDS011;62294;48.554;10.202;2023-11-22T08:12:36;5.47;;;2.50;;
73940;SDS011;62294;48.554;10.202;2023-11-22T08:15:05;3.60;;;2.35;;
73940;SDS011;62294;48.554;10.202;2023-11-22T08:17:35;6.65;;;3.30;;
73940;SDS011;62294;48.554;10.202;2023-11-22T08:20:02;2.15;;;1.73;;
73940;SDS011;62294;48.554;10.202;2023-11-22T08:22:36;4.38;;;2.60;;
73940;SDS011;62294;48.554;10.202;2023-11-22T08:25:03;2.95;;;1.65;;
73940;SDS011;62294;48.554;10.202;2023-11-22T08:27:30;5.85;;;2.97;;
73940;SDS011;62294;48.554;10.202;2023-11-22T08:29:57;7.53;;;3.65;;
73940;SDS011;62294;48.554;10.202;2023-11-22T08:32:24;6.70;;;3.17;;
73940;SDS011;62294;48.554;10.202;2023-11-22T08:34:54;3.78;;;2.25;;
73940;SDS011;62294;48.554;10.202;2023-11-22T08:37:21;4.28;;;2.25;;
73940;SDS011;62294;48.554;10.202;2023-11-22T08:39:47;3.28;;;1.83;;
73940;SDS011;62294;48.554;10.202;2023-11-22T08:42:15;5.60;;;2.70;;
73940;SDS011;62294;48.554;10.202;2023-11-22T08:44:43;6.43;;;2.47;;
73940;SDS011;62294;48.554;10.202;2023-11-22T08:47:10;4.43;;;2.78;;
73940;SDS011;62294;48.554;10.202;2023-11-22T08:49:37;5.57;;;2.75;;
73940;SDS011;62294;48.554;10.202;2023-11-22T08:52:04;4.90;;;2.15;;
73940;SDS011;62294;48.554;10.202;2023-11-22T08:54:33;4.72;;;2.03;;
73940;SDS011;62294;48.554;10.202;2023-11-22T08:57:01;6.00;;;3.28;;
73940;SDS011;62294;48.554;10.202;2023-11-22T08:59:28;4.65;;;2.60;;
73940;SDS011;62294;48.554;10.202;2023-11-22T09:01:55;5.47;;;2.75;;
73940;SDS011;62294;48.554;10.202;2023-11-22T09:04:21;3.53;;;2.30;;
73940;SDS011;62294;48.554;10.202;2023-11-22T09:06:50;3.20;;;2.20;;
73940;SDS011;62294;48.554;10.202;2023-11-22T09:09:17;6.45;;;3.30;;
73940;SDS011;62294;48.554;10.202;2023-11-22T09:11:43;6.15;;;2.92;;
73940;SDS011;62294;48.554;10.202;2023-11-22T09:14:10;3.90;;;2.70;;
73940;SDS011;62294;48.554;10.202;2023-11-22T09:16:37;3.92;;;2.50;;
73940;SDS011;62294;48.554;10.202;2023-11-22T09:19:05;2.45;;;1.35;;
73940;SDS011;62294;48.554;10.202;2023-11-22T09:21:35;6.10;;;3.35;;
73940;SDS011;62294;48.554;10.202;2023-11-22T09:24:01;3.65;;;2.35;;
73940;SDS011;62294;48.554;10.202;2023-11-22T09:26:30;3.92;;;2.67;;
73940;SDS011;62294;48.554;10.202;2023-11-22T09:28:57;4.30;;;2.15;;
73940;SDS011;62294;48.554;10.202;2023-11-22T09:31:24;4.40;;;2.63;;
73940;SDS011;62294;48.554;10.202;2023-11-22T09:33:52;4.78;;;2.85;;
73940;SDS011;62294;48.554;10.202;2023-11-22T09:36:18;5.07;;;3.33;;
73940;SDS011;62294;48.554;10.202;2023-11-22T09:38:45;3.00;;;1.85;;
73940;SDS011;62294;48.554;10.202;2023-11-22T09:41:13;6.40;;;3.10;;
73940;SDS011;62294;48.554;10.202;2023-11-22T09:43:42;5.03;;;2.58;;
73940;SDS011;62294;48.554;10.202;2023-11-22T09:46:10;5.30;;;3.03;;
73940;SDS011;62294;48.554;10.202;2023-11-22T09:48:39;3.47;;;2.30;;
73940;SDS011;62294;48.554;10.202;2023-11-22T09:53:55;3.17;;;2.00;;
73940;SDS011;62294;48.554;10.202;2023-11-22T09:56:23;7.75;;;2.72;;
73940;SDS011;62294;48.554;10.202;2023-11-22T09:58:54;5.20;;;2.95;;
73940;SDS011;62294;48.554;10.202;2023-11-22T10:01:23;6.90;;;3.28;;
73940;SDS011;62294;48.554;10.202;2023-11-22T10:03:50;3.97;;;2.20;;
73940;SDS011;62294;48.554;10.202;2023-11-22T10:06:17;6.40;;;2.97;;
73940;SDS011;62294;48.554;10.202;2023-11-22T10:08:44;3.67;;;2.05;;
73940;SDS011;62294;48.554;10.202;2023-11-22T10:11:16;6.03;;;3.28;;
73940;SDS011;62294;48.554;10.202;2023-11-22T10:13:48;6.78;;;3.00;;
73940;SDS011;62294;48.554;10.202;2023-11-22T10:16:17;3.95;;;2.35;;
73940;SDS011;62294;48.554;10.202;2023-11-22T10:18:45;5.70;;;3.08;;
73940;SDS011;62294;48.554;10.202;2023-11-22T10:23:57;5.00;;;2.80;;
73940;SDS011;62294;48.554;10.202;2023-11-22T10:26:27;4.47;;;2.60;;
73940;SDS011;62294;48.554;10.202;2023-11-22T10:28:55;5.35;;;3.10;;
73940;SDS011;62294;48.554;10.202;2023-11-22T10:31:23;5.35;;;2.45;;
73940;SDS011;62294;48.554;10.202;2023-11-22T10:33:50;5.63;;;2.58;;
73940;SDS011;62294;48.554;10.202;2023-11-22T10:36:20;5.68;;;2.65;;
73940;SDS011;62294;48.554;10.202;2023-11-22T10:38:47;5.60;;;3.08;;
73940;SDS011;62294;48.554;10.202;2023-11-22T10:41:15;4.95;;;2.67;;
73940;SDS011;62294;48.554;10.202;2023-11-22T10:43:42;5.93;;;2.78;;
73940;SDS011;62294;48.554;10.202;2023-11-22T10:46:10;6.07;;;2.90;;
73940;SDS011;62294;48.554;10.202;2023-11-22T10:48:40;6.10;;;3.10;;
73940;SDS011;62294;48.554;10.202;2023-11-22T10:51:06;5.47;;;3.08;;
73940;SDS011;62294;48.554;10.202;2023-11-22T10:53:41;5.10;;;3.03;;
73940;SDS011;62294;48.554;10.202;2023-11-22T10:56:15;6.90;;;3.10;;
73940;SDS011;62294;48.554;10.202;2023-11-22T10:58:49;6.30;;;3.40;;
73940;SDS011;62294;48.554;10.202;2023-11-22T11:01:17;6.85;;;3.88;;
73940;SDS011;62294;48.554;10.202;2023-11-22T11:03:46;2.35;;;1.67;;
73940;SDS011;62294;48.554;10.202;2023-11-22T11:06:23;4.47;;;2.65;;
73940;SDS011;62294;48.554;10.202;2023-11-22T11:08:58;7.45;;;3.92;;
73940;SDS011;62294;48.554;10.202;2023-11-22T11:11:27;7.53;;;3.58;;
73940;SDS011;62294;48.554;10.202;2023-11-22T11:13:54;4.97;;;3.08;;
73940;SDS011;62294;48.554;10.202;2023-11-22T11:16:21;9.68;;;4.43;;
73940;SDS011;62294;48.554;10.202;2023-11-22T11:18:49;7.25;;;3.08;;
73940;SDS011;62294;48.554;10.202;2023-11-22T11:21:16;7.43;;;3.92;;
73940;SDS011;62294;48.554;10.202;2023-11-22T11:23:45;7.90;;;3.83;;
73940;SDS011;62294;48.554;10.202;2023-11-22T11:26:15;19.45;;;7.70;;
73940;SDS011;62294;48.554;10.202;2023-11-22T11:28:45;5.45;;;3.20;;
73940;SDS011;62294;48.554;10.202;2023-11-22T11:31:14;6.47;;;3.70;;
73940;SDS011;62294;48.554;10.202;2023-11-22T11:38:53;5.90;;;3.17;;
73940;SDS011;62294;48.554;10.202;2023-11-22T11:41:33;5.63;;;3.08;;
73940;SDS011;62294;48.554;10.202;2023-11-22T11:44:01;8.55;;;4.47;;
73940;SDS011;62294;48.554;10.202;2023-11-22T11:46:29;4.97;;;2.63;;
73940;SDS011;62294;48.554;10.202;2023-11-22T11:48:56;3.58;;;2.63;;
73940;SDS011;62294;48.554;10.202;2023-11-22T11:51:27;7.85;;;3.35;;
73940;SDS011;62294;48.554;10.202;2023-11-22T11:53:54;5.88;;;3.50;;
73940;SDS011;62294;48.554;10.202;2023-11-22T11:56:22;9.80;;;3.97;;
73940;SDS011;62294;48.554;10.202;2023-11-22T11:58:50;6.05;;;3.88;;
73940;SDS011;62294;48.554;10.202;2023-11-22T12:01:17;7.75;;;3.78;;
73940;SDS011;62294;48.554;10.202;2023-11-22T12:03:44;6.80;;;3.38;;
73940;SDS011;62294;48.554;10.202;2023-11-22T12:06:14;8.45;;;4.90;;
73940;SDS011;62294;48.554;10.202;2023-11-22T12:08:45;5.15;;;3.10;;
73940;SDS011;62294;48.554;10.202;2023-11-22T12:11:14;6.03;;;3.65;;
73940;SDS011;62294;48.554;10.202;2023-11-22T12:13:42;7.72;;;4.25;;
73940;SDS011;62294;48.554;10.202;2023-11-22T12:16:19;5.47;;;3.10;;
73940;SDS011;62294;48.554;10.202;2023-11-22T12:18:49;8.20;;;3.75;;
73940;SDS011;62294;48.554;10.202;2023-11-22T12:21:16;6.72;;;3.97;;
73940;SDS011;62294;48.554;10.202;2023-11-22T12:23:46;6.75;;;3.70;;
73940;SDS011;62294;48.554;10.202;2023-11-22T12:26:16;6.07;;;2.83;;
73940;SDS011;62294;48.554;10.202;2023-11-22T12:28:47;7.28;;;3.58;;
73940;SDS011;62294;48.554;10.202;2023-11-22T12:31:30;5.53;;;3.45;;
73940;SDS011;62294;48.554;10.202;2023-11-22T12:34:02;8.23;;;4.75;;
73940;SDS011;62294;48.554;10.202;2023-11-22T12:36:29;7.18;;;4.18;;
73940;SDS011;62294;48.554;10.202;2023-11-22T12:38:56;7.95;;;3.80;;
73940;SDS011;62294;48.554;10.202;2023-11-22T12:41:26;5.82;;;2.95;;
73940;SDS011;62294;48.554;10.202;2023-11-22T12:44:03;5.28;;;2.85;;
73940;SDS011;62294;48.554;10.202;2023-11-22T12:46:47;5.15;;;2.92;;
73940;SDS011;62294;48.554;10.202;2023-11-22T12:49:24;6.78;;;2.67;;
73940;SDS011;62294;48.554;10.202;2023-11-22T12:51:52;6.20;;;3.22;;
73940;SDS011;62294;48.554;10.202;2023-11-22T12:54:21;6.57;;;3.55;;
73940;SDS011;62294;48.554;10.202;2023-11-22T12:56:50;7.75;;;3.33;;
73940;SDS011;62294;48.554;10.202;2023-11-22T12:59:20;5.55;;;3.35;;
73940;SDS011;62294;48.554;10.202;2023-11-22T13:01:47;8.15;;;3.95;;
73940;SDS011;62294;48.554;10.202;2023-11-22T13:04:14;7.00;;;4.25;;
73940;SDS011;62294;48.554;10.202;2023-11-22T13:06:42;5.30;;;2.97;;
73940;SDS011;62294;48.554;10.202;2023-11-22T13:09:08;8.32;;;3.55;;
73940;SDS011;62294;48.554;10.202;2023-11-22T13:11:42;5.25;;;3.13;;
73940;SDS011;62294;48.554;10.202;2023-11-22T13:14:12;5.20;;;3.10;;
73940;SDS011;62294;48.554;10.202;2023-11-22T13:16:40;8.52;;;4.20;;
73940;SDS011;62294;48.554;10.202;2023-11-22T13:19:07;7.05;;;3.75;;
73940;SDS011;62294;48.554;10.202;2023-11-22T13:21:35;6.15;;;3.45;;
73940;SDS011;62294;48.554;10.202;2023-11-22T13:24:02;5.90;;;3.40;;
73940;SDS011;62294;48.554;10.202;2023-11-22T13:26:29;6.88;;;3.65;;
73940;SDS011;62294;48.554;10.202;2023-11-22T13:28:57;6.55;;;3.42;;
73940;SDS011;62294;48.554;10.202;2023-11-22T13:31:24;7.75;;;3.80;;
73940;SDS011;62294;48.554;10.202;2023-11-22T13:33:51;5.68;;;3.33;;
73940;SDS011;62294;48.554;10.202;2023-11-22T13:36:17;7.00;;;3.67;;
73940;SDS011;62294;48.554;10.202;2023-11-22T13:38:44;7.32;;;4.13;;
73940;SDS011;62294;48.554;10.202;2023-11-22T13:41:11;11.80;;;6.05;;
73940;SDS011;62294;48.554;10.202;2023-11-22T13:43:37;5.65;;;3.33;;
73940;SDS011;62294;48.554;10.202;2023-11-22T13:46:05;7.97;;;3.75;;
73940;SDS011;62294;48.554;10.202;2023-11-22T13:48:31;9.40;;;4.90;;
73940;SDS011;62294;48.554;10.202;2023-11-22T13:50:58;9.13;;;4.20;;
73940;SDS011;62294;48.554;10.202;2023-11-22T13:53:26;8.82;;;3.35;;
73940;SDS011;62294;48.554;10.202;2023-11-22T13:55:56;9.93;;;4.32;;
73940;SDS011;62294;48.554;10.202;2023-11-22T13:58:24;7.85;;;4.28;;
73940;SDS011;62294;48.554;10.202;2023-11-22T14:00:51;6.25;;;3.08;;
73940;SDS011;62294;48.554;10.202;2023-11-22T14:03:20;8.85;;;4.88;;
73940;SDS011;62294;48.554;10.202;2023-11-22T14:05:48;12.13;;;6.10;;
73940;SDS011;62294;48.554;10.202;2023-11-22T14:08:15;9.30;;;5.25;;
73940;SDS011;62294;48.554;10.202;2023-11-22T14:10:43;9.07;;;4.90;;
73940;SDS011;62294;48.554;10.202;2023-11-22T14:13:12;10.32;;;4.55;;
73940;SDS011;62294;48.554;10.202;2023-11-22T14:15:39;8.35;;;4.25;;
73940;SDS011;62294;48.554;10.202;2023-11-22T14:18:06;8.93;;;4.60;;
73940;SDS011;62294;48.554;10.202;2023-11-22T14:20:33;6.57;;;3.53;;
73940;SDS011;62294;48.554;10.202;2023-11-22T14:23:01;6.30;;;3.63;;
73940;SDS011;62294;48.554;10.202;2023-11-22T14:25:28;7.68;;;4.63;;
73940;SDS011;62294;48.554;10.202;2023-11-22T14:27:55;9.57;;;4.78;;
73940;SDS011;62294;48.554;10.202;2023-11-22T14:30:23;9.90;;;4.40;;
73940;SDS011;62294;48.554;10.202;2023-11-22T14:32:54;10.00;;;3.70;;
73940;SDS011;62294;48.554;10.202;2023-11-22T14:35:25;10.30;;;4.88;;
73940;SDS011;62294;48.554;10.202;2023-11-22T14:37:51;9.43;;;4.95;;
73940;SDS011;62294;48.554;10.202;2023-11-22T14:40:19;10.77;;;4.68;;
73940;SDS011;62294;48.554;10.202;2023-11-22T14:42:47;10.15;;;4.45;;
73940;SDS011;62294;48.554;10.202;2023-11-22T14:45:19;7.05;;;3.80;;
73940;SDS011;62294;48.554;10.202;2023-11-22T14:47:48;8.10;;;4.03;;